首页
METAR-TAF:

METAR-TAF

机场 :

麦迪逊, 威斯康辛州, 美国

纬度: 43-08-26N, 经度: 089-20-43W, 海拔: 262米

当前天气观测

该预报发布于58分钟前的07:53 UTC
静风
温度 -1°C
湿度 86%
气压 1011 hPa
能見度: 16.1公里
天空无云

METAR: KMSN 030753Z AUTO 00000KT 10SM CLR M01/M03 A2986 RMK AO2 SLP121 T10061028

时间: 02:51 (08:51 UTC)

预报

该预报发布于3小时和31分钟前的05:20 UTC
预报有效从03日的 06点(UTC)到 04日的 06点(UTC)
风速6节,风向西南
能見度: 10公里
天空无云
从 03日的 0900点(UTC)
风速5节,风向西转西南
能見度: 10公里
少量云层高于25000英尺
从 03日的 2200点(UTC)
风速4节,风向
能見度: 10公里
少量云层高于25000英尺
从 04日的 0500点(UTC)
风速节,风向
能見度: 10公里
少量云层高于2700英尺

TAF: KMSN 030520Z 0306/0406 23006KT P6SM SKC WS020/26045KT FM030900 25005KT P6SM FEW250 FM032200 35004KT P6SM FEW250 FM040500 00000KT P6SM FEW027

超过4000个机场的气象观测和天气预报(METAR&TAF报告)。

可查询的气象台以黄色和红色小点在地图上表示。

将鼠标移到小点上方,可查看气象台名称。

然后点击查看天气观测和预报。

如需切换地图:点击带黑十字的绿色按钮放大地图;点击带横线的绿色按钮缩小地图;或者点击绿色箭头查看邻近地区的地图。


METAR-TAF: